Time;durP1;ratioP1;P1;durP2;ratioP2;P2;SDS_P1;SDS_P2;PMS_P1;PMS_P2;Temp;Humidity;BMP_temperature;BMP_pressure;BME280_temperature;BME280_humidity;BME280_pressure;Samples;Min_cycle;Max_cycle;Signal;HPM_P1;HPM_P2
2022/11/29 00:01:03;;;;;;;1.67;1.58;;;17.90;67.50;;;;;;4987394;28;20042;-18
2022/11/29 00:03:29;;;;;;;1.75;1.65;;;17.90;67.40;;;;;;4989520;28;20042;-17
2022/11/29 00:05:54;;;;;;;1.45;1.35;;;17.90;67.60;;;;;;4988143;28;20042;-17
2022/11/29 00:08:20;;;;;;;1.48;1.38;;;17.80;68.20;;;;;;4989581;28;20039;-17
2022/11/29 00:10:46;;;;;;;1.50;1.33;;;17.80;67.50;;;;;;4986431;28;20065;-24
2022/11/29 00:13:11;;;;;;;1.40;1.30;;;17.90;67.50;;;;;;4988681;28;20466;-17
2022/11/29 00:15:37;;;;;;;1.40;1.30;;;17.90;67.60;;;;;;4988389;28;20042;-16
2022/11/29 00:18:04;;;;;;;1.60;1.50;;;17.80;67.60;;;;;;4987938;28;20542;-17
2022/11/29 00:20:29;;;;;;;1.70;1.60;;;17.80;67.50;;;;;;4989696;28;20491;-17
2022/11/29 00:22:55;;;;;;;1.55;1.45;;;17.80;67.40;;;;;;4986762;28;20047;-17
2022/11/29 00:25:20;;;;;;;1.50;1.40;;;17.80;67.50;;;;;;4989136;28;20809;-17
2022/11/29 00:27:46;;;;;;;1.77;1.50;;;17.80;67.70;;;;;;4987398;28;20092;-18
2022/11/29 00:30:12;;;;;;;1.40;1.13;;;17.90;67.20;;;;;;4989080;28;20053;-20
2022/11/29 00:32:38;;;;;;;1.48;1.35;;;17.90;67.30;;;;;;4986169;28;20535;-18
2022/11/29 00:35:03;;;;;;;1.70;1.60;;;17.90;67.10;;;;;;4988723;28;20105;-17
2022/11/29 00:37:29;;;;;;;1.50;1.40;;;17.80;68.10;;;;;;4989347;28;20049;-17
2022/11/29 00:39:55;;;;;;;1.38;1.27;;;17.90;67.10;;;;;;4985438;28;20050;-17
2022/11/29 00:42:20;;;;;;;1.40;1.30;;;17.80;67.30;;;;;;4988350;28;20050;-17
2022/11/29 00:44:46;;;;;;;1.52;1.42;;;17.80;67.60;;;;;;4985875;28;20593;-16
2022/11/29 00:47:11;;;;;;;1.60;1.17;;;17.90;66.90;;;;;;4986291;28;20050;-20
2022/11/29 00:49:38;;;;;;;1.35;1.10;;;17.90;66.90;;;;;;4987155;28;20050;-28
2022/11/29 00:52:04;;;;;;;1.67;1.58;;;17.80;67.00;;;;;;4987573;28;20058;-39
2022/11/29 00:54:29;;;;;;;1.65;1.55;;;17.90;66.90;;;;;;4988685;28;20050;-33
2022/11/29 00:56:55;;;;;;;1.88;1.55;;;17.80;67.20;;;;;;4986844;28;20476;-30
2022/11/29 00:59:20;;;;;;;1.50;1.40;;;17.90;67.80;;;;;;4987550;28;20042;-30
2022/11/29 01:01:46;;;;;;;1.30;1.20;;;18.00;67.80;;;;;;4986507;28;20046;-35
2022/11/29 01:04:11;;;;;;;1.17;1.08;;;18.10;66.50;;;;;;4988406;28;20049;-33
2022/11/29 01:06:37;;;;;;;1.40;1.30;;;17.90;66.60;;;;;;4986466;28;20058;-32
2022/11/29 01:09:03;;;;;;;1.60;1.50;;;18.00;66.50;;;;;;5001612;28;20397;-35
2022/11/29 01:11:29;;;;;;;1.27;1.17;;;18.00;66.30;;;;;;4986009;28;20129;-37
2022/11/29 01:13:57;;;;;;;1.58;1.27;;;18.00;66.70;;;;;;4986576;28;20137;-32
2022/11/29 01:16:22;;;;;;;1.42;1.25;;;18.00;66.30;;;;;;4987417;28;20467;-32
2022/11/29 01:18:48;;;;;;;1.13;0.98;;;17.90;66.80;;;;;;4987357;28;20046;-30
2022/11/29 01:21:15;;;;;;;0.82;0.82;;;18.00;66.60;;;;;;4988064;28;20061;-32
2022/11/29 01:23:41;;;;;;;1.27;1.08;;;17.70;67.00;;;;;;4987216;28;20100;-31
2022/11/29 01:26:15;;;;;;;1.20;1.10;;;17.70;67.30;;;;;;4983431;28;20066;-32
2022/11/29 01:28:40;;;;;;;;;;;17.90;66.90;;;;;;4984192;28;20125;-29
2022/11/29 01:31:07;;;;;;;1.30;1.20;;;17.80;66.80;;;;;;4982400;28;20139;-36
2022/11/29 01:33:33;;;;;;;0.93;0.90;;;17.90;67.00;;;;;;4983572;28;20042;-33
2022/11/29 01:35:59;;;;;;;1.23;1.10;;;17.90;66.90;;;;;;4998592;28;20490;-29
2022/11/29 01:38:24;;;;;;;1.38;1.02;;;17.90;66.60;;;;;;4971620;28;20086;-36
2022/11/29 01:40:57;;;;;;;1.08;0.98;;;17.90;66.90;;;;;;4965601;28;20062;-34
2022/11/29 01:43:23;;;;;;;1.15;1.00;;;17.90;66.80;;;;;;4966254;28;20543;-33
2022/11/29 01:45:48;;;;;;;0.75;0.75;;;17.80;67.10;;;;;;4965686;28;20050;-32
2022/11/29 01:48:14;;;;;;;1.20;1.10;;;17.80;67.10;;;;;;4964475;28;20038;-32
2022/11/29 01:50:40;;;;;;;1.33;1.10;;;17.90;66.60;;;;;;4966523;28;20677;-37
2022/11/29 01:53:05;;;;;;;1.40;1.23;;;17.80;67.00;;;;;;4963873;28;20157;-30
2022/11/29 01:55:31;;;;;;;1.23;1.13;;;17.70;67.20;;;;;;4965843;28;20035;-30
2022/11/29 01:57:58;;;;;;;1.20;1.10;;;17.90;67.10;;;;;;4962776;28;20034;-33
2022/11/29 02:00:23;;;;;;;1.17;1.17;;;17.90;66.50;;;;;;4967135;28;21552;-34
2022/11/29 02:02:58;;;;;;;1.63;1.00;;;17.90;66.60;;;;;;4965400;28;20614;-39
2022/11/29 02:05:24;;;;;;;0.82;0.80;;;17.90;66.80;;;;;;4948036;28;20043;-33
2022/11/29 02:07:51;;;;;;;0.98;0.90;;;17.80;67.10;;;;;;4961731;28;20582;-28
2022/11/29 02:10:16;;;;;;;1.10;1.00;;;17.70;67.40;;;;;;4964729;28;20142;-32
2022/11/29 02:12:58;;;;;;;1.13;1.08;;;17.70;67.20;;;;;;4964365;28;20068;-33
2022/11/29 02:15:51;;;;;;;1.00;0.90;;;17.90;67.00;;;;;;4953385;28;20629;-29
2022/11/29 02:18:26;;;;;;;1.25;1.15;;;17.80;67.00;;;;;;4965765;28;20062;-32
2022/11/29 02:21:10;;;;;;;1.00;0.85;;;17.90;66.80;;;;;;4951669;28;20054;-33
2022/11/29 02:23:42;;;;;;;;;;;17.90;67.10;;;;;;4969654;28;20045;-31
2022/11/29 02:26:45;;;;;;;1.20;1.08;;;17.90;66.40;;;;;;4969958;28;19932;-38
2022/11/29 02:29:32;;;;;;;0.90;0.90;;;18.00;66.30;;;;;;4970195;28;20030;-33
2022/11/29 02:32:34;;;;;;;1.27;1.00;;;17.80;66.50;;;;;;4969072;28;20081;-37
2022/11/29 02:35:21;;;;;;;1.02;0.93;;;17.70;66.90;;;;;;4968141;28;20050;-34
2022/11/29 02:38:02;;;;;;;0.82;0.70;;;17.70;67.30;;;;;;4969003;28;20411;-30
2022/11/29 02:41:08;;;;;;;1.10;1.00;;;17.80;66.80;;;;;;4968777;28;20114;-33
2022/11/29 02:44:06;;;;;;;1.42;0.95;;;17.90;66.50;;;;;;4950069;28;20061;-29
2022/11/29 02:46:53;;;;;;;0.70;0.70;;;17.80;66.80;;;;;;4966995;28;20113;-34
2022/11/29 02:49:40;;;;;;;0.88;0.88;;;17.90;66.50;;;;;;4968067;28;20063;-30
2022/11/29 02:52:35;;;;;;;1.15;0.98;;;17.90;66.50;;;;;;4968921;28;20042;-29
2022/11/29 02:55:09;;;;;;;0.98;0.90;;;17.80;66.60;;;;;;4953873;28;20049;-35
2022/11/29 02:57:49;;;;;;;1.00;0.90;;;17.80;66.70;;;;;;4968112;28;20539;-29
2022/11/29 03:00:17;;;;;;;1.00;0.90;;;17.80;66.60;;;;;;4967970;28;20046;-31
2022/11/29 03:03:04;;;;;;;0.68;0.68;;;17.70;66.80;;;;;;4951918;28;20125;-31
2022/11/29 03:05:39;;;;;;;1.27;0.80;;;17.70;66.90;;;;;;4967874;28;20467;-31
2022/11/29 03:08:19;;;;;;;0.90;0.90;;;17.70;66.90;;;;;;4965490;28;20154;-30
2022/11/29 03:11:23;;;;;;;0.70;0.70;;;17.90;66.30;;;;;;4967812;28;20129;-32
2022/11/29 03:14:16;;;;;;;0.47;0.45;;;17.90;66.10;;;;;;4926835;28;20061;-33
2022/11/29 03:16:57;;;;;;;0.93;0.82;;;17.80;66.70;;;;;;4924828;28;21278;-30
2022/11/29 03:19:25;;;;;;;0.75;0.70;;;17.90;66.30;;;;;;4924507;28;20051;-31
2022/11/29 03:22:12;;;;;;;1.00;0.82;;;17.80;66.70;;;;;;4925222;28;20216;-34
2022/11/29 03:24:45;;;;;;;0.70;0.70;;;17.80;66.70;;;;;;4926857;28;20132;-33
2022/11/29 03:27:16;;;;;;;0.70;0.70;;;17.80;66.40;;;;;;4925583;28;20051;-29
2022/11/29 03:29:49;;;;;;;0.52;0.52;;;17.90;66.20;;;;;;4926662;28;20071;-35
2022/11/29 03:32:26;;;;;;;0.70;0.70;;;18.00;65.90;;;;;;4910148;28;20050;-30
2022/11/29 03:35:10;;;;;;;0.60;0.57;;;17.80;66.30;;;;;;4926614;28;20357;-31
2022/11/29 03:37:47;;;;;;;1.17;0.60;;;17.70;66.60;;;;;;4930062;28;20047;-34
2022/11/29 03:40:18;;;;;;;0.93;0.63;;;17.70;66.70;;;;;;4910738;29;20051;-32
2022/11/29 03:42:58;;;;;;;1.10;0.65;;;17.70;66.80;;;;;;4925711;28;20148;-29
2022/11/29 03:45:32;;;;;;;0.68;0.50;;;17.70;66.70;;;;;;4969982;28;21145;-32
2022/11/29 03:48:08;;;;;;;1.42;0.80;;;17.70;66.70;;;;;;4964394;28;20061;-36
2022/11/29 03:50:40;;;;;;;0.80;0.70;;;17.90;66.40;;;;;;4967092;28;20110;-29
2022/11/29 03:53:25;;;;;;;0.50;0.50;;;17.90;66.10;;;;;;4966079;28;20054;-33
2022/11/29 03:56:33;;;;;;;0.77;0.60;;;18.00;65.90;;;;;;4966151;28;20109;-29
2022/11/29 03:59:13;;;;;;;1.40;0.70;;;17.90;65.90;;;;;;4966175;28;20176;-33
2022/11/29 04:02:10;;;;;;;0.90;0.70;;;17.80;66.20;;;;;;4967826;28;20065;-29
2022/11/29 04:05:10;;;;;;;0.77;0.77;;;17.80;66.30;;;;;;4962686;28;20128;-32
2022/11/29 04:07:43;;;;;;;1.17;0.65;;;17.80;66.50;;;;;;4964543;28;20431;-29
2022/11/29 04:10:26;;;;;;;0.50;0.50;;;17.80;66.30;;;;;;4965459;28;20519;-30
2022/11/29 04:13:19;;;;;;;0.50;0.50;;;17.90;66.80;;;;;;4966051;28;20077;-32
2022/11/29 04:16:03;;;;;;;1.65;0.80;;;17.90;66.30;;;;;;4968104;28;20046;-33
2022/11/29 04:18:35;;;;;;;;;;;18.00;65.90;;;;;;4978988;28;20042;-29
2022/11/29 04:21:51;;;;;;;0.85;0.50;;;17.90;66.00;;;;;;4981103;28;19925;-29
2022/11/29 04:24:37;;;;;;;0.40;0.40;;;17.90;66.00;;;;;;4947665;28;23015;-31
2022/11/29 04:27:30;;;;;;;1.00;0.68;;;17.80;66.30;;;;;;4944653;28;20114;-34
2022/11/29 04:30:08;;;;;;;0.90;0.77;;;17.80;65.90;;;;;;4944431;28;20046;-29
2022/11/29 04:32:57;;;;;;;1.95;1.25;;;17.90;66.00;;;;;;4945318;28;20097;-30
2022/11/29 04:35:53;;;;;;;0.40;0.40;;;17.80;66.00;;;;;;4944374;28;20058;-38
2022/11/29 04:38:42;;;;;;;0.70;0.57;;;17.80;66.20;;;;;;4942029;28;20055;-29
2022/11/29 04:41:12;;;;;;;0.60;0.60;;;17.80;66.20;;;;;;4928720;28;20106;-32
2022/11/29 04:44:03;;;;;;;0.40;0.40;;;17.80;66.00;;;;;;4945793;28;20062;-29
2022/11/29 04:46:43;;;;;;;1.38;0.70;;;17.70;66.60;;;;;;4928247;28;20065;-31
2022/11/29 04:49:20;;;;;;;0.90;0.52;;;17.80;66.40;;;;;;4944735;28;20043;-30
2022/11/29 04:52:23;;;;;;;0.50;0.50;;;17.80;66.20;;;;;;4944704;28;20032;-33
2022/11/29 04:54:55;;;;;;;0.85;0.65;;;17.70;66.30;;;;;;4939477;28;20149;-34
2022/11/29 04:57:48;;;;;;;0.63;0.60;;;17.80;66.20;;;;;;4932023;28;20062;-30
2022/11/29 05:00:16;;;;;;;0.50;0.40;;;17.70;66.50;;;;;;5011251;28;20524;-33
2022/11/29 05:02:55;;;;;;;0.57;0.55;;;17.60;66.50;;;;;;5012135;28;20038;-33
2022/11/29 05:05:49;;;;;;;0.60;0.60;;;17.70;66.30;;;;;;4987578;28;20046;-29
2022/11/29 05:08:44;;;;;;;0.95;0.68;;;17.70;66.20;;;;;;4982036;28;20084;-29
2022/11/29 05:11:13;;;;;;;;;;;17.70;66.30;;;;;;4987028;28;20188;-33
2022/11/29 05:14:00;;;;;;;0.50;0.50;;;17.70;66.20;;;;;;4986826;28;20425;-29
2022/11/29 05:16:46;;;;;;;0.60;0.60;;;17.70;66.40;;;;;;4987852;28;20692;-30
2022/11/29 05:19:36;;;;;;;1.10;0.60;;;17.70;66.50;;;;;;4981447;28;20082;-30
2022/11/29 05:22:26;;;;;;;0.73;0.68;;;17.70;66.30;;;;;;4985288;28;20038;-35
2022/11/29 05:24:54;;;;;;;0.80;0.60;;;17.60;66.20;;;;;;4984444;28;20285;-31
2022/11/29 05:27:34;;;;;;;0.68;0.68;;;17.70;66.10;;;;;;4985066;28;20096;-32
2022/11/29 05:30:01;;;;;;;0.70;0.50;;;17.70;66.50;;;;;;4985719;28;20113;-19
2022/11/29 05:32:53;;;;;;;0.40;0.40;;;17.60;66.50;;;;;;4983474;28;20052;-36
2022/11/29 05:35:45;;;;;;;0.50;0.40;;;17.70;66.30;;;;;;4984474;28;20120;-36
2022/11/29 05:38:36;;;;;;;0.55;0.50;;;17.70;66.40;;;;;;4984575;28;20050;-31
2022/11/29 05:41:16;;;;;;;0.77;0.50;;;17.60;66.40;;;;;;4986012;28;20053;-32
2022/11/29 05:44:05;;;;;;;0.70;0.68;;;17.70;66.40;;;;;;4986641;28;20042;-29
2022/11/29 05:47:09;;;;;;;0.50;0.50;;;17.60;66.10;;;;;;4972050;28;20050;-32
2022/11/29 05:50:01;;;;;;;1.13;0.43;;;17.70;66.40;;;;;;4979504;28;20533;-30
2022/11/29 05:52:32;;;;;;;1.13;0.52;;;17.60;66.30;;;;;;4990113;28;20057;-36
2022/11/29 05:55:13;;;;;;;0.50;0.50;;;17.60;66.50;;;;;;4994342;28;20051;-32
2022/11/29 05:58:01;;;;;;;0.52;0.50;;;17.50;66.70;;;;;;4990793;28;20046;-32
2022/11/29 06:00:30;;;;;;;0.50;0.45;;;17.60;66.50;;;;;;4987996;28;20134;-32
2022/11/29 06:03:05;;;;;;;0.55;0.52;;;17.60;66.20;;;;;;4986236;28;20039;-31
2022/11/29 06:06:02;;;;;;;0.60;0.50;;;17.60;66.10;;;;;;4989944;28;20081;-29
2022/11/29 06:08:53;;;;;;;0.50;0.47;;;17.60;66.30;;;;;;4986074;28;20065;-29
2022/11/29 06:11:20;;;;;;;1.52;0.73;;;17.60;66.90;;;;;;4633499;28;9999775;-33
2022/11/29 06:14:28;;;;;;;0.43;0.43;;;17.50;67.30;;;;;;4985948;28;20047;-31
2022/11/29 06:17:00;;;;;;;0.70;0.70;;;17.70;67.60;;;;;;4638925;28;10000532;-30
2022/11/29 06:19:32;;;;;;;0.60;0.60;;;17.80;67.50;;;;;;4963657;28;20573;-31
2022/11/29 06:22:20;;;;;;;0.50;0.50;;;17.90;67.40;;;;;;4984104;28;20096;-31
2022/11/29 06:24:46;;;;;;;1.63;0.88;;;17.70;67.70;;;;;;4967700;28;20052;-32
2022/11/29 06:27:35;;;;;;;0.50;0.50;;;17.60;68.60;;;;;;4983897;28;20042;-28
2022/11/29 06:30:11;;;;;;;1.65;0.40;;;17.60;68.90;;;;;;4980216;28;20656;-29
2022/11/29 06:32:51;;;;;;;0.50;0.50;;;17.40;69.50;;;;;;4967868;28;20049;-34
2022/11/29 06:35:31;;;;;;;0.90;0.47;;;17.30;69.70;;;;;;4979169;28;20491;-31
2022/11/29 06:37:57;;;;;;;2.25;0.50;;;17.60;69.00;;;;;;4971513;28;20524;-33
2022/11/29 06:40:23;;;;;;;0.52;0.43;;;17.80;69.20;;;;;;4953159;28;20109;-33
2022/11/29 06:42:49;;;;;;;1.65;0.43;;;17.60;68.90;;;;;;4985075;28;20107;-34
2022/11/29 06:45:15;;;;;;;0.73;0.60;;;17.60;69.60;;;;;;4981904;28;20050;-33
2022/11/29 06:47:48;;;;;;;2.15;0.60;;;17.60;69.60;;;;;;4982348;28;20061;-33
2022/11/29 06:50:39;;;;;;;0.55;0.50;;;17.80;68.80;;;;;;4981798;28;20066;-33
2022/11/29 06:53:33;;;;;;;1.10;0.50;;;17.60;69.20;;;;;;4986662;28;20081;-32
2022/11/29 06:56:36;;;;;;;3.25;0.90;;;17.70;69.30;;;;;;4986050;28;20062;-30
2022/11/29 06:59:06;;;;;;;2.75;1.00;;;17.60;69.50;;;;;;4990496;28;20057;-33
2022/11/29 07:01:35;;;;;;;1.67;0.60;;;17.40;69.70;;;;;;4986486;28;20057;-31
2022/11/29 07:04:44;;;;;;;1.55;0.70;;;17.50;69.50;;;;;;4987854;28;20049;-33
2022/11/29 07:07:14;;;;;;;1.67;0.80;;;17.50;69.50;;;;;;4988591;28;20050;-29
2022/11/29 07:09:40;;;;;;;1.70;0.90;;;17.60;69.20;;;;;;4981201;28;20042;-30
2022/11/29 07:12:06;;;;;;;0.82;0.50;;;17.60;68.70;;;;;;4995217;28;20134;-33
2022/11/29 07:14:31;;;;;;;1.33;0.60;;;17.70;68.70;;;;;;4630276;28;10000339;-30
2022/11/29 07:17:32;;;;;;;0.80;0.63;;;17.80;68.40;;;;;;4983020;28;20042;-29
2022/11/29 07:20:11;;;;;;;1.70;0.60;;;17.70;68.50;;;;;;4977242;28;20157;-31
2022/11/29 07:22:40;;;;;;;0.70;0.60;;;17.70;68.40;;;;;;4978050;28;20085;-34
2022/11/29 07:25:21;;;;;;;1.02;0.60;;;17.60;68.60;;;;;;4979896;28;20038;-31
2022/11/29 07:28:04;;;;;;;1.33;0.60;;;17.60;68.40;;;;;;4983554;28;20133;-31
2022/11/29 07:30:30;;;;;;;1.13;0.80;;;17.50;68.70;;;;;;4980825;28;20058;-31
2022/11/29 07:33:19;;;;;;;1.23;0.50;;;17.50;68.90;;;;;;4986510;28;20768;-30
2022/11/29 07:35:59;;;;;;;1.13;0.50;;;17.40;69.00;;;;;;4982619;28;20202;-34
2022/11/29 07:38:28;;;;;;;0.90;0.60;;;17.30;69.30;;;;;;4983508;28;20050;-31
2022/11/29 07:41:05;;;;;;;2.08;0.60;;;17.50;69.00;;;;;;4984755;28;20042;-36
2022/11/29 07:44:03;;;;;;;1.75;0.63;;;17.60;68.60;;;;;;4983820;28;20097;-35
2022/11/29 07:46:29;;;;;;;0.70;0.50;;;17.50;68.90;;;;;;4984115;28;20140;-35
2022/11/29 07:48:55;;;;;;;3.40;0.70;;;17.60;69.30;;;;;;4981234;28;20614;-31
2022/11/29 07:51:20;;;;;;;0.77;0.75;;;17.70;68.20;;;;;;4979672;28;20074;-36
2022/11/29 07:53:46;;;;;;;1.52;0.63;;;17.70;68.10;;;;;;4975452;28;20515;-37
2022/11/29 07:56:11;;;;;;;1.75;0.60;;;17.60;68.20;;;;;;4975957;28;20070;-31
2022/11/29 07:58:37;;;;;;;0.70;0.60;;;17.60;68.20;;;;;;4985394;28;20078;-33
2022/11/29 08:01:03;;;;;;;0.90;0.60;;;17.50;68.40;;;;;;4984677;28;20046;-32
2022/11/29 08:03:28;;;;;;;0.60;0.60;;;17.40;68.80;;;;;;4981801;28;20058;-34
2022/11/29 08:05:54;;;;;;;0.52;0.50;;;17.50;68.60;;;;;;4980833;28;20134;-33
2022/11/29 08:08:20;;;;;;;1.05;0.68;;;17.30;69.00;;;;;;4981290;28;20499;-33
2022/11/29 08:10:46;;;;;;;1.15;0.68;;;17.30;69.40;;;;;;4981127;28;20087;-36
2022/11/29 08:13:11;;;;;;;3.13;0.30;;;17.30;69.00;;;;;;4976264;28;20141;-34
2022/11/29 08:15:44;;;;;;;1.52;0.70;;;17.30;69.20;;;;;;4976998;28;20072;-36
2022/11/29 08:18:09;;;;;;;0.50;0.50;;;17.50;68.50;;;;;;4976822;28;20105;-35
2022/11/29 08:20:35;;;;;;;2.00;0.50;;;17.40;68.80;;;;;;4981881;28;20601;-33
2022/11/29 08:23:02;;;;;;;0.55;0.50;;;17.40;68.60;;;;;;4984136;28;20050;-33
2022/11/29 08:25:27;;;;;;;1.98;0.70;;;17.50;68.20;;;;;;4982474;28;20046;-30
2022/11/29 08:27:53;;;;;;;0.55;0.50;;;17.60;68.00;;;;;;4982820;28;20042;-35
2022/11/29 08:30:21;;;;;;;1.13;0.60;;;17.50;68.40;;;;;;4987148;28;20468;-34
2022/11/29 08:32:48;;;;;;;3.40;0.60;;;17.40;68.60;;;;;;4987787;28;20112;-33
2022/11/29 08:35:14;;;;;;;1.58;0.60;;;17.30;69.00;;;;;;4987230;28;20061;-29
2022/11/29 08:37:40;;;;;;;0.55;0.35;;;17.30;68.60;;;;;;4986708;28;20040;-34
2022/11/29 08:40:06;;;;;;;1.00;0.60;;;17.40;68.40;;;;;;4984722;28;20058;-35
2022/11/29 08:42:31;;;;;;;0.52;0.52;;;17.30;68.40;;;;;;4987400;28;20109;-31
2022/11/29 08:44:57;;;;;;;0.52;0.52;;;17.30;68.90;;;;;;4987373;28;20057;-36
2022/11/29 08:47:34;;;;;;;0.70;0.70;;;17.30;68.70;;;;;;4986986;28;20507;-33
2022/11/29 08:50:13;;;;;;;1.08;0.60;;;17.30;68.60;;;;;;4987225;28;20052;-35
2022/11/29 08:55:25;;;;;;;1.08;0.60;;;17.40;68.50;;;;;;4988563;28;20030;-33
2022/11/29 08:57:51;;;;;;;0.50;0.50;;;17.40;68.50;;;;;;4984947;28;20447;-31
2022/11/29 09:00:17;;;;;;;1.33;0.63;;;17.40;68.70;;;;;;4983876;28;20508;-38
2022/11/29 09:02:42;;;;;;;1.23;0.50;;;17.40;68.80;;;;;;4987600;28;20039;-31
2022/11/29 09:05:09;;;;;;;0.73;0.60;;;17.40;69.50;;;;;;4987415;28;20042;-32
2022/11/29 09:07:34;;;;;;;0.90;0.55;;;17.40;69.00;;;;;;4983445;28;20495;-31
2022/11/29 09:10:04;;;;;;;0.93;0.70;;;17.50;68.70;;;;;;4987478;28;20097;-35
2022/11/29 09:12:31;;;;;;;0.40;0.40;;;17.30;69.20;;;;;;4984031;28;20049;-38
2022/11/29 09:14:57;;;;;;;1.17;0.40;;;17.30;69.10;;;;;;4984261;28;20042;-34
2022/11/29 09:17:22;;;;;;;0.47;0.47;;;17.40;68.80;;;;;;4984161;28;20060;-34
2022/11/29 09:19:48;;;;;;;0.50;0.50;;;17.50;68.50;;;;;;4986476;28;20451;-33
2022/11/29 09:22:13;;;;;;;0.85;0.50;;;17.50;68.50;;;;;;4983242;28;20038;-26
2022/11/29 09:24:39;;;;;;;0.60;0.50;;;17.50;68.50;;;;;;4983246;28;20050;-34
2022/11/29 09:27:05;;;;;;;0.55;0.50;;;17.50;68.40;;;;;;4987366;28;20049;-35
2022/11/29 09:29:30;;;;;;;0.95;0.47;;;17.50;68.30;;;;;;4986544;28;20050;-34
2022/11/29 09:31:56;;;;;;;1.45;0.70;;;17.40;68.30;;;;;;4987329;28;20050;-33
2022/11/29 09:34:21;;;;;;;0.80;0.50;;;17.40;68.40;;;;;;4986660;28;20066;-32
2022/11/29 09:36:47;;;;;;;0.63;0.63;;;17.40;69.00;;;;;;4986810;28;20105;-30
2022/11/29 09:39:12;;;;;;;0.45;0.40;;;17.50;68.20;;;;;;4985267;28;20053;-35
2022/11/29 09:42:02;;;;;;;0.63;0.50;;;17.50;68.30;;;;;;4986150;28;20050;-35
2022/11/29 09:44:55;;;;;;;0.55;0.45;;;17.40;68.80;;;;;;4986712;28;20507;-31
2022/11/29 09:47:33;;;;;;;0.75;0.75;;;17.40;68.80;;;;;;4983266;28;20562;-31
2022/11/29 09:50:16;;;;;;;0.40;0.40;;;17.50;68.60;;;;;;4986201;28;20049;-35
2022/11/29 09:53:13;;;;;;;1.05;0.60;;;17.50;68.60;;;;;;4981724;28;20042;-34
2022/11/29 09:55:56;;;;;;;0.40;0.40;;;17.40;68.70;;;;;;4984076;28;20051;-30
2022/11/29 09:58:25;;;;;;;0.60;0.50;;;17.50;68.40;;;;;;4981570;28;20116;-38
2022/11/29 10:00:59;;;;;;;1.23;0.43;;;17.50;69.10;;;;;;4984973;28;20054;-33
2022/11/29 10:03:41;;;;;;;1.02;0.50;;;17.40;68.90;;;;;;4995270;28;20074;-36
2022/11/29 10:06:17;;;;;;;0.52;0.40;;;17.50;68.40;;;;;;4987173;28;20134;-34
2022/11/29 10:08:46;;;;;;;0.50;0.47;;;17.40;68.80;;;;;;4983716;28;20046;-33
2022/11/29 10:11:20;;;;;;;0.40;0.40;;;17.40;68.90;;;;;;4982609;28;20038;-36
2022/11/29 10:13:50;;;;;;;0.43;0.30;;;17.20;69.40;;;;;;4983747;28;20057;-31
2022/11/29 10:16:34;;;;;;;1.60;0.70;;;17.20;69.90;;;;;;4978360;28;20119;-33
2022/11/29 10:19:03;;;;;;;0.40;0.40;;;17.20;69.80;;;;;;4984396;28;20042;-33
2022/11/29 10:21:32;;;;;;;0.50;0.38;;;17.20;69.70;;;;;;4983185;28;20059;-36
2022/11/29 10:24:00;;;;;;;0.43;0.32;;;17.20;69.40;;;;;;4986400;28;20046;-35
2022/11/29 10:26:26;;;;;;;0.50;0.40;;;17.20;69.30;;;;;;4985823;28;20043;-32
2022/11/29 10:28:54;;;;;;;1.42;0.50;;;17.30;68.90;;;;;;4981489;28;20047;-33
2022/11/29 10:31:25;;;;;;;0.88;0.47;;;17.40;68.90;;;;;;4979945;28;20161;-37
2022/11/29 10:33:51;;;;;;;0.40;0.38;;;17.40;68.80;;;;;;4985138;28;20045;-35
2022/11/29 10:36:45;;;;;;;1.33;0.50;;;17.30;68.70;;;;;;4990399;28;20043;-32
2022/11/29 10:39:16;;;;;;;1.13;1.02;;;17.40;68.80;;;;;;5014431;28;20046;-33
2022/11/29 10:41:41;;;;;;;0.45;0.45;;;17.50;68.30;;;;;;4986227;28;20051;-29
2022/11/29 10:44:09;;;;;;;0.50;0.50;;;17.60;68.20;;;;;;4988669;28;20038;-34
2022/11/29 10:46:35;;;;;;;0.50;0.40;;;17.50;68.40;;;;;;4986943;28;20780;-34
2022/11/29 10:49:05;;;;;;;0.90;0.40;;;17.40;69.60;;;;;;5012280;28;20042;-37
2022/11/29 10:51:31;;;;;;;0.40;0.40;;;17.40;69.40;;;;;;4988091;28;20042;-35
2022/11/29 10:54:10;;;;;;;0.47;0.40;;;17.20;69.20;;;;;;4987923;28;20415;-30
2022/11/29 10:56:36;;;;;;;1.85;0.47;;;17.30;69.30;;;;;;4988624;28;20050;-34
2022/11/29 10:59:10;;;;;;;0.32;0.30;;;17.20;69.40;;;;;;4988776;28;20582;-36
2022/11/29 11:01:37;;;;;;;;;;;17.20;70.10;;;;;;4987068;28;20508;-34
2022/11/29 11:04:06;;;;;;;0.60;0.47;;;17.30;69.00;;;;;;4984684;28;19925;-32
2022/11/29 11:06:42;;;;;;;0.45;0.45;;;17.40;68.60;;;;;;4984520;28;20736;-34
2022/11/29 11:09:31;;;;;;;1.75;0.60;;;17.50;67.80;;;;;;4985044;28;20045;-32
2022/11/29 11:11:58;;;;;;;0.57;0.55;;;17.30;68.90;;;;;;4982554;28;20053;-32
2022/11/29 11:14:36;;;;;;;0.50;0.50;;;17.20;69.40;;;;;;4988376;28;20057;-30
2022/11/29 11:17:31;;;;;;;3.17;0.50;;;17.10;69.40;;;;;;4986958;28;20097;-30
2022/11/29 11:20:07;;;;;;;0.32;0.30;;;17.30;69.80;;;;;;4985203;28;20038;-31
2022/11/29 11:22:32;;;;;;;1.58;0.30;;;17.20;69.20;;;;;;4989420;28;20412;-33
2022/11/29 11:25:01;;;;;;;1.05;0.50;;;17.30;69.00;;;;;;4988120;28;20050;-30
2022/11/29 11:27:28;;;;;;;1.98;0.60;;;17.40;68.60;;;;;;4989435;28;21029;-29
2022/11/29 11:29:54;;;;;;;0.50;0.50;;;17.40;68.60;;;;;;4969855;28;20074;-32
2022/11/29 11:32:19;;;;;;;0.40;0.30;;;17.40;69.40;;;;;;4990162;28;20038;-36
2022/11/29 11:34:55;;;;;;;0.30;0.30;;;17.20;69.90;;;;;;4987109;28;20069;-32
2022/11/29 11:37:23;;;;;;;0.40;0.40;;;17.20;69.00;;;;;;4988943;28;20049;-31
2022/11/29 11:39:58;;;;;;;1.08;0.57;;;17.30;68.90;;;;;;4989643;28;20046;-30
2022/11/29 11:42:37;;;;;;;0.50;0.50;;;17.40;68.70;;;;;;4988907;28;20046;-36
2022/11/29 11:45:23;;;;;;;0.60;0.40;;;17.20;69.10;;;;;;4987621;28;20511;-32
2022/11/29 11:47:58;;;;;;;1.85;0.50;;;17.30;68.70;;;;;;4981721;28;20057;-32
2022/11/29 11:50:28;;;;;;;0.55;0.40;;;17.40;68.50;;;;;;4985616;28;20050;-30
2022/11/29 11:53:02;;;;;;;0.57;0.50;;;17.40;68.40;;;;;;4987627;28;20511;-34
2022/11/29 11:55:31;;;;;;;0.40;0.40;;;17.40;68.40;;;;;;4987632;28;20496;-35
2022/11/29 11:58:03;;;;;;;1.13;0.60;;;17.40;68.40;;;;;;4987090;28;20038;-33
2022/11/29 12:00:56;;;;;;;0.50;0.40;;;17.40;68.20;;;;;;4984464;28;20129;-36
2022/11/29 12:03:53;;;;;;;0.43;0.40;;;17.50;68.10;;;;;;4971754;28;20101;-32
2022/11/29 12:06:59;;;;;;;1.00;0.60;;;17.60;67.80;;;;;;4996359;28;20558;-31
2022/11/29 12:09:47;;;;;;;0.77;0.68;;;17.50;67.80;;;;;;4986554;28;20034;-34
2022/11/29 12:12:22;;;;;;;0.80;0.70;;;17.50;67.90;;;;;;4973362;28;20203;-33
2022/11/29 12:15:01;;;;;;;0.57;0.40;;;17.50;67.80;;;;;;4949963;28;20420;-32
2022/11/29 12:17:46;;;;;;;0.60;0.45;;;17.50;67.80;;;;;;4984607;28;20683;-31
2022/11/29 12:20:30;;;;;;;0.55;0.35;;;17.60;67.80;;;;;;4622788;28;10000229;-34
2022/11/29 12:23:10;;;;;;;0.50;0.40;;;17.50;67.90;;;;;;4987922;28;20061;-30
2022/11/29 12:25:39;;;;;;;0.52;0.50;;;17.60;68.00;;;;;;4991524;28;20035;-35
2022/11/29 12:28:11;;;;;;;0.60;0.50;;;17.60;68.00;;;;;;4992700;28;20078;-32
2022/11/29 12:30:37;;;;;;;0.55;0.55;;;17.60;67.90;;;;;;4977125;28;20045;-31
2022/11/29 12:33:32;;;;;;;1.02;0.63;;;17.50;68.20;;;;;;4968120;28;20056;-30
2022/11/29 12:36:10;;;;;;;0.50;0.45;;;17.50;68.40;;;;;;4987402;28;20053;-33
2022/11/29 12:38:54;;;;;;;0.50;0.50;;;17.50;68.50;;;;;;4986394;28;20045;-35
2022/11/29 12:41:35;;;;;;;0.80;0.65;;;17.50;68.50;;;;;;4986858;28;20089;-35
2022/11/29 12:44:18;;;;;;;0.63;0.60;;;17.40;69.20;;;;;;4980752;28;20050;-30
2022/11/29 12:46:48;;;;;;;0.57;0.45;;;17.40;69.60;;;;;;4976826;28;20030;-35
2022/11/29 12:49:30;;;;;;;0.63;0.50;;;17.40;69.40;;;;;;4990805;28;20051;-17
2022/11/29 12:52:35;;;;;;;0.40;0.40;;;17.30;69.60;;;;;;4994373;28;20046;-17
2022/11/29 12:55:06;;;;;;;0.60;0.45;;;17.30;69.50;;;;;;4977365;28;20053;-18
2022/11/29 12:57:35;;;;;;;0.52;0.50;;;17.40;69.50;;;;;;4978349;28;20589;-17
2022/11/29 13:00:15;;;;;;;0.52;0.52;;;17.30;69.70;;;;;;4996751;28;20042;-18
2022/11/29 13:02:51;;;;;;;0.77;0.60;;;17.30;69.80;;;;;;4980770;28;20034;-18
2022/11/29 13:05:23;;;;;;;1.10;0.55;;;17.40;69.60;;;;;;5009417;28;20729;-18
2022/11/29 13:07:49;;;;;;;0.40;0.40;;;17.40;69.50;;;;;;4977106;28;20077;-18
2022/11/29 13:10:14;;;;;;;0.70;0.70;;;17.40;69.50;;;;;;4983845;28;20526;-20
2022/11/29 13:12:46;;;;;;;0.50;0.50;;;17.40;69.50;;;;;;4978410;28;20574;-17
2022/11/29 13:15:25;;;;;;;0.40;0.40;;;17.40;69.60;;;;;;4979931;28;20431;-17
2022/11/29 13:18:04;;;;;;;0.52;0.40;;;17.30;69.60;;;;;;4984892;28;20065;-18
2022/11/29 13:20:59;;;;;;;3.13;0.60;;;17.30;69.60;;;;;;4982915;28;20050;-16
2022/11/29 13:23:51;;;;;;;0.80;0.50;;;17.50;69.40;;;;;;4958566;28;20113;-17
2022/11/29 13:26:17;;;;;;;1.02;0.57;;;17.70;68.70;;;;;;4954117;28;20062;-17
2022/11/29 13:28:45;;;;;;;0.40;0.40;;;18.00;67.90;;;;;;4959940;28;20071;-17
2022/11/29 13:31:16;;;;;;;0.40;0.40;;;18.00;67.60;;;;;;4939923;28;20055;-17
2022/11/29 13:34:00;;;;;;;0.63;0.45;;;18.10;67.30;;;;;;4938101;28;20503;-18